sensor_id;sensor_type;location;lat;lon;timestamp;temperature;humidity
22917;DHT22;11624;53.250;7.456;2022-10-16T00:01:04;18.88;57.13
22917;DHT22;11624;53.250;7.456;2022-10-16T00:03:33;18.87;57.26
22917;DHT22;11624;53.250;7.456;2022-10-16T00:06:02;18.88;57.15
22917;DHT22;11624;53.250;7.456;2022-10-16T00:08:31;18.93;57.02
22917;DHT22;11624;53.250;7.456;2022-10-16T00:11:02;18.93;57.00
22917;DHT22;11624;53.250;7.456;2022-10-16T00:13:32;18.93;56.95
22917;DHT22;11624;53.250;7.456;2022-10-16T00:16:01;18.95;56.83
22917;DHT22;11624;53.250;7.456;2022-10-16T00:18:29;18.92;56.95
22917;DHT22;11624;53.250;7.456;2022-10-16T00:21:02;18.84;57.03
22917;DHT22;11624;53.250;7.456;2022-10-16T00:23:31;18.82;57.10
22917;DHT22;11624;53.250;7.456;2022-10-16T00:26:02;18.81;57.20
22917;DHT22;11624;53.250;7.456;2022-10-16T00:28:31;18.81;57.21
22917;DHT22;11624;53.250;7.456;2022-10-16T00:31:03;18.81;57.00
22917;DHT22;11624;53.250;7.456;2022-10-16T00:33:31;18.74;57.45
22917;DHT22;11624;53.250;7.456;2022-10-16T00:35:59;18.76;57.38
22917;DHT22;11624;53.250;7.456;2022-10-16T00:38:27;18.74;57.42
22917;DHT22;11624;53.250;7.456;2022-10-16T00:40:56;18.74;57.35
22917;DHT22;11624;53.250;7.456;2022-10-16T00:43:37;18.68;57.32
22917;DHT22;11624;53.250;7.456;2022-10-16T00:46:13;18.68;57.36
22917;DHT22;11624;53.250;7.456;2022-10-16T00:48:45;18.64;57.59
22917;DHT22;11624;53.250;7.456;2022-10-16T00:51:15;18.56;57.80
22917;DHT22;11624;53.250;7.456;2022-10-16T00:53:44;18.55;57.83
22917;DHT22;11624;53.250;7.456;2022-10-16T00:56:12;18.50;58.03
22917;DHT22;11624;53.250;7.456;2022-10-16T00:58:42;18.48;58.07
22917;DHT22;11624;53.250;7.456;2022-10-16T01:01:10;18.53;58.00
22917;DHT22;11624;53.250;7.456;2022-10-16T01:03:38;18.50;58.09
22917;DHT22;11624;53.250;7.456;2022-10-16T01:06:21;18.51;57.85
22917;DHT22;11624;53.250;7.456;2022-10-16T01:09:10;18.52;57.84
22917;DHT22;11624;53.250;7.456;2022-10-16T01:11:45;18.50;58.00
22917;DHT22;11624;53.250;7.456;2022-10-16T01:14:22;18.49;57.67
22917;DHT22;11624;53.250;7.456;2022-10-16T01:16:58;18.41;58.18
22917;DHT22;11624;53.250;7.456;2022-10-16T01:19:40;18.43;58.00
22917;DHT22;11624;53.250;7.456;2022-10-16T01:22:12;18.35;58.43
22917;DHT22;11624;53.250;7.456;2022-10-16T01:24:45;18.26;58.65
22917;DHT22;11624;53.250;7.456;2022-10-16T01:27:21;18.29;58.56
22917;DHT22;11624;53.250;7.456;2022-10-16T01:29:54;18.37;58.38
22917;DHT22;11624;53.250;7.456;2022-10-16T01:32:29;18.32;58.40
22917;DHT22;11624;53.250;7.456;2022-10-16T01:35:02;18.25;58.61
22917;DHT22;11624;53.250;7.456;2022-10-16T01:37:36;18.17;58.79
22917;DHT22;11624;53.250;7.456;2022-10-16T01:40:07;18.13;58.90
22917;DHT22;11624;53.250;7.456;2022-10-16T01:42:41;18.17;58.77
22917;DHT22;11624;53.250;7.456;2022-10-16T01:45:13;18.13;58.85
22917;DHT22;11624;53.250;7.456;2022-10-16T01:47:46;18.09;59.11
22917;DHT22;11624;53.250;7.456;2022-10-16T01:50:16;18.07;59.16
22917;DHT22;11624;53.250;7.456;2022-10-16T01:52:48;18.07;59.19
22917;DHT22;11624;53.250;7.456;2022-10-16T01:55:21;18.09;59.11
22917;DHT22;11624;53.250;7.456;2022-10-16T01:57:51;18.19;58.76
22917;DHT22;11624;53.250;7.456;2022-10-16T02:00:22;18.18;58.77
22917;DHT22;11624;53.250;7.456;2022-10-16T02:02:53;18.18;58.68
22917;DHT22;11624;53.250;7.456;2022-10-16T02:05:25;18.13;58.80
22917;DHT22;11624;53.250;7.456;2022-10-16T02:07:54;18.13;58.88
22917;DHT22;11624;53.250;7.456;2022-10-16T02:10:26;18.14;58.79
22917;DHT22;11624;53.250;7.456;2022-10-16T02:13:06;18.12;58.80
22917;DHT22;11624;53.250;7.456;2022-10-16T02:15:34;18.08;59.11
22917;DHT22;11624;53.250;7.456;2022-10-16T02:18:03;18.13;59.00
22917;DHT22;11624;53.250;7.456;2022-10-16T02:20:36;18.20;58.74
22917;DHT22;11624;53.250;7.456;2022-10-16T02:23:12;18.23;58.61
22917;DHT22;11624;53.250;7.456;2022-10-16T02:25:44;18.20;58.70
22917;DHT22;11624;53.250;7.456;2022-10-16T02:28:17;18.21;58.72
22917;DHT22;11624;53.250;7.456;2022-10-16T02:30:49;18.25;58.77
22917;DHT22;11624;53.250;7.456;2022-10-16T02:33:19;18.27;58.67
22917;DHT22;11624;53.250;7.456;2022-10-16T02:35:49;18.29;58.78
22917;DHT22;11624;53.250;7.456;2022-10-16T02:38:20;18.30;58.63
22917;DHT22;11624;53.250;7.456;2022-10-16T02:40:48;18.32;58.64
22917;DHT22;11624;53.250;7.456;2022-10-16T02:43:18;18.36;58.43
22917;DHT22;11624;53.250;7.456;2022-10-16T02:45:47;18.38;58.41
22917;DHT22;11624;53.250;7.456;2022-10-16T02:48:15;18.41;58.33
22917;DHT22;11624;53.250;7.456;2022-10-16T02:50:43;18.44;58.17
22917;DHT22;11624;53.250;7.456;2022-10-16T02:53:11;18.49;58.06
22917;DHT22;11624;53.250;7.456;2022-10-16T02:55:39;18.54;57.90
22917;DHT22;11624;53.250;7.456;2022-10-16T02:58:07;18.55;57.74
22917;DHT22;11624;53.250;7.456;2022-10-16T03:00:36;18.51;57.50
22917;DHT22;11624;53.250;7.456;2022-10-16T03:03:04;18.61;57.45
22917;DHT22;11624;53.250;7.456;2022-10-16T03:05:32;18.55;57.55
22917;DHT22;11624;53.250;7.456;2022-10-16T03:08:00;18.63;57.34
22917;DHT22;11624;53.250;7.456;2022-10-16T03:10:28;18.65;57.35
22917;DHT22;11624;53.250;7.456;2022-10-16T03:12:56;18.66;57.32
22917;DHT22;11624;53.250;7.456;2022-10-16T03:15:24;18.62;57.42
22917;DHT22;11624;53.250;7.456;2022-10-16T03:17:54;18.65;57.26
22917;DHT22;11624;53.250;7.456;2022-10-16T03:20:22;18.65;57.30
22917;DHT22;11624;53.250;7.456;2022-10-16T03:22:50;18.59;57.37
22917;DHT22;11624;53.250;7.456;2022-10-16T03:25:18;18.58;57.48
22917;DHT22;11624;53.250;7.456;2022-10-16T03:27:46;18.61;57.39
22917;DHT22;11624;53.250;7.456;2022-10-16T03:30:14;18.58;57.50
22917;DHT22;11624;53.250;7.456;2022-10-16T03:32:44;18.62;57.36
22917;DHT22;11624;53.250;7.456;2022-10-16T03:35:13;18.63;57.21
22917;DHT22;11624;53.250;7.456;2022-10-16T03:37:41;18.68;57.19
22917;DHT22;11624;53.250;7.456;2022-10-16T03:40:10;18.70;57.19
22917;DHT22;11624;53.250;7.456;2022-10-16T03:42:38;18.74;57.06
22917;DHT22;11624;53.250;7.456;2022-10-16T03:45:06;18.73;57.07
22917;DHT22;11624;53.250;7.456;2022-10-16T03:47:35;18.79;56.93
22917;DHT22;11624;53.250;7.456;2022-10-16T03:50:04;18.83;56.80
22917;DHT22;11624;53.250;7.456;2022-10-16T03:52:33;18.85;56.76
22917;DHT22;11624;53.250;7.456;2022-10-16T03:55:02;18.80;56.90
22917;DHT22;11624;53.250;7.456;2022-10-16T03:57:30;18.79;56.87
22917;DHT22;11624;53.250;7.456;2022-10-16T03:59:58;18.77;57.00
22917;DHT22;11624;53.250;7.456;2022-10-16T04:02:26;18.82;56.87
22917;DHT22;11624;53.250;7.456;2022-10-16T04:04:54;18.82;56.93
22917;DHT22;11624;53.250;7.456;2022-10-16T04:07:22;18.82;56.94
22917;DHT22;11624;53.250;7.456;2022-10-16T04:09:52;18.83;56.94
22917;DHT22;11624;53.250;7.456;2022-10-16T04:12:20;18.79;57.06
22917;DHT22;11624;53.250;7.456;2022-10-16T04:14:48;18.84;56.85
22917;DHT22;11624;53.250;7.456;2022-10-16T04:17:16;18.82;56.89
22917;DHT22;11624;53.250;7.456;2022-10-16T04:19:44;18.80;57.04
22917;DHT22;11624;53.250;7.456;2022-10-16T04:22:12;18.82;57.06
22917;DHT22;11624;53.250;7.456;2022-10-16T04:24:40;18.81;57.08
22917;DHT22;11624;53.250;7.456;2022-10-16T04:27:10;18.84;56.97
22917;DHT22;11624;53.250;7.456;2022-10-16T04:29:38;18.81;57.15
22917;DHT22;11624;53.250;7.456;2022-10-16T04:32:08;18.85;57.09
22917;DHT22;11624;53.250;7.456;2022-10-16T04:34:36;18.86;57.07
22917;DHT22;11624;53.250;7.456;2022-10-16T04:37:04;18.86;57.10
22917;DHT22;11624;53.250;7.456;2022-10-16T04:39:33;18.87;57.17
22917;DHT22;11624;53.250;7.456;2022-10-16T04:42:01;18.89;57.13
22917;DHT22;11624;53.250;7.456;2022-10-16T04:44:30;18.89;57.16
22917;DHT22;11624;53.250;7.456;2022-10-16T04:46:58;18.86;57.34
22917;DHT22;11624;53.250;7.456;2022-10-16T04:49:26;18.82;57.39
22917;DHT22;11624;53.250;7.456;2022-10-16T04:51:54;18.80;57.39
22917;DHT22;11624;53.250;7.456;2022-10-16T04:54:22;18.71;57.57
22917;DHT22;11624;53.250;7.456;2022-10-16T04:56:50;18.66;57.77
22917;DHT22;11624;53.250;7.456;2022-10-16T04:59:19;18.65;57.79
22917;DHT22;11624;53.250;7.456;2022-10-16T05:01:50;18.67;57.77
22917;DHT22;11624;53.250;7.456;2022-10-16T05:04:18;18.64;57.90
22917;DHT22;11624;53.250;7.456;2022-10-16T05:06:47;18.56;58.32
22917;DHT22;11624;53.250;7.456;2022-10-16T05:09:15;18.57;58.32
22917;DHT22;11624;53.250;7.456;2022-10-16T05:11:43;18.61;58.39
22917;DHT22;11624;53.250;7.456;2022-10-16T05:14:12;18.62;58.34
22917;DHT22;11624;53.250;7.456;2022-10-16T05:16:40;18.62;58.32
22917;DHT22;11624;53.250;7.456;2022-10-16T05:19:09;18.66;58.27
22917;DHT22;11624;53.250;7.456;2022-10-16T05:21:54;18.64;58.30
22917;DHT22;11624;53.250;7.456;2022-10-16T05:24:22;18.63;58.36
22917;DHT22;11624;53.250;7.456;2022-10-16T05:26:50;18.65;58.33
22917;DHT22;11624;53.250;7.456;2022-10-16T05:29:19;18.59;58.49
22917;DHT22;11624;53.250;7.456;2022-10-16T05:31:50;18.54;58.77
22917;DHT22;11624;53.250;7.456;2022-10-16T05:34:19;18.52;58.90
22917;DHT22;11624;53.250;7.456;2022-10-16T05:36:48;18.56;58.89
22917;DHT22;11624;53.250;7.456;2022-10-16T05:39:16;18.57;58.91
22917;DHT22;11624;53.250;7.456;2022-10-16T05:41:44;18.62;58.87
22917;DHT22;11624;53.250;7.456;2022-10-16T05:44:12;18.62;58.95
22917;DHT22;11624;53.250;7.456;2022-10-16T05:46:40;18.66;58.88
22917;DHT22;11624;53.250;7.456;2022-10-16T05:49:08;18.66;58.98
22917;DHT22;11624;53.250;7.456;2022-10-16T05:51:38;18.64;59.09
22917;DHT22;11624;53.250;7.456;2022-10-16T05:54:06;18.67;59.00
22917;DHT22;11624;53.250;7.456;2022-10-16T05:56:34;18.68;59.09
22917;DHT22;11624;53.250;7.456;2022-10-16T05:59:03;18.74;59.01
22917;DHT22;11624;53.250;7.456;2022-10-16T06:01:32;18.77;59.00
22917;DHT22;11624;53.250;7.456;2022-10-16T06:04:01;18.72;59.12
22917;DHT22;11624;53.250;7.456;2022-10-16T06:06:29;18.77;59.13
22917;DHT22;11624;53.250;7.456;2022-10-16T06:08:59;18.78;59.12
22917;DHT22;11624;53.250;7.456;2022-10-16T06:11:29;18.80;59.14
22917;DHT22;11624;53.250;7.456;2022-10-16T06:14:00;18.79;59.22
22917;DHT22;11624;53.250;7.456;2022-10-16T06:16:29;18.83;59.23
22917;DHT22;11624;53.250;7.456;2022-10-16T06:18:57;18.80;59.40
22917;DHT22;11624;53.250;7.456;2022-10-16T06:21:27;18.77;59.44
22917;DHT22;11624;53.250;7.456;2022-10-16T06:23:57;18.80;59.51
22917;DHT22;11624;53.250;7.456;2022-10-16T06:26:27;18.82;59.50
22917;DHT22;11624;53.250;7.456;2022-10-16T06:28:57;18.79;59.62
22917;DHT22;11624;53.250;7.456;2022-10-16T06:31:26;18.84;59.57
22917;DHT22;11624;53.250;7.456;2022-10-16T06:33:57;18.86;59.59
22917;DHT22;11624;53.250;7.456;2022-10-16T06:36:26;18.87;59.57
22917;DHT22;11624;53.250;7.456;2022-10-16T06:38:54;18.91;59.48
22917;DHT22;11624;53.250;7.456;2022-10-16T06:41:22;18.97;59.38
22917;DHT22;11624;53.250;7.456;2022-10-16T06:43:52;19.06;59.25
22917;DHT22;11624;53.250;7.456;2022-10-16T06:46:22;19.10;59.09
22917;DHT22;11624;53.250;7.456;2022-10-16T06:48:51;19.12;58.92
22917;DHT22;11624;53.250;7.456;2022-10-16T06:51:20;19.09;58.99
22917;DHT22;11624;53.250;7.456;2022-10-16T06:53:50;19.08;59.07
22917;DHT22;11624;53.250;7.456;2022-10-16T06:56:34;19.09;59.00
22917;DHT22;11624;53.250;7.456;2022-10-16T06:59:04;19.12;59.00
22917;DHT22;11624;53.250;7.456;2022-10-16T07:01:32;19.15;59.09
22917;DHT22;11624;53.250;7.456;2022-10-16T07:04:01;19.17;59.08
22917;DHT22;11624;53.250;7.456;2022-10-16T07:06:32;19.20;58.95
22917;DHT22;11624;53.250;7.456;2022-10-16T07:09:03;19.23;58.69
22917;DHT22;11624;53.250;7.456;2022-10-16T07:11:32;19.16;58.71
22917;DHT22;11624;53.250;7.456;2022-10-16T07:14:01;19.14;58.82
22917;DHT22;11624;53.250;7.456;2022-10-16T07:16:32;19.12;58.85
22917;DHT22;11624;53.250;7.456;2022-10-16T07:19:01;19.09;59.11
22917;DHT22;11624;53.250;7.456;2022-10-16T07:21:32;19.10;59.30
22917;DHT22;11624;53.250;7.456;2022-10-16T07:24:04;19.20;59.13
22917;DHT22;11624;53.250;7.456;2022-10-16T07:26:35;19.29;58.77
22917;DHT22;11624;53.250;7.456;2022-10-16T07:29:03;19.30;58.71
22917;DHT22;11624;53.250;7.456;2022-10-16T07:31:32;19.30;58.61
22917;DHT22;11624;53.250;7.456;2022-10-16T07:34:01;19.36;58.61
22917;DHT22;11624;53.250;7.456;2022-10-16T07:36:29;19.37;58.70
22917;DHT22;11624;53.250;7.456;2022-10-16T07:38:57;19.48;58.27
22917;DHT22;11624;53.250;7.456;2022-10-16T07:41:27;19.46;58.10
22917;DHT22;11624;53.250;7.456;2022-10-16T07:43:55;19.37;58.12
22917;DHT22;11624;53.250;7.456;2022-10-16T07:46:27;19.50;57.99
22917;DHT22;11624;53.250;7.456;2022-10-16T07:48:56;19.61;57.77
22917;DHT22;11624;53.250;7.456;2022-10-16T07:51:25;19.63;57.58
22917;DHT22;11624;53.250;7.456;2022-10-16T07:53:53;19.65;57.47
22917;DHT22;11624;53.250;7.456;2022-10-16T07:56:22;19.72;57.95
22917;DHT22;11624;53.250;7.456;2022-10-16T07:58:51;20.07;57.16
22917;DHT22;11624;53.250;7.456;2022-10-16T08:01:19;20.32;56.10
22917;DHT22;11624;53.250;7.456;2022-10-16T08:03:49;20.40;55.60
22917;DHT22;11624;53.250;7.456;2022-10-16T08:06:20;20.34;55.65
22917;DHT22;11624;53.250;7.456;2022-10-16T08:08:54;20.49;56.34
22917;DHT22;11624;53.250;7.456;2022-10-16T08:11:23;20.61;55.85
22917;DHT22;11624;53.250;7.456;2022-10-16T08:13:51;20.72;54.81
22917;DHT22;11624;53.250;7.456;2022-10-16T08:16:19;20.72;54.57
22917;DHT22;11624;53.250;7.456;2022-10-16T08:18:47;20.68;54.55
22917;DHT22;11624;53.250;7.456;2022-10-16T08:21:21;20.57;54.54
22917;DHT22;11624;53.250;7.456;2022-10-16T08:23:50;20.59;54.79
22917;DHT22;11624;53.250;7.456;2022-10-16T08:26:25;20.60;54.99
22917;DHT22;11624;53.250;7.456;2022-10-16T08:28:53;20.65;56.10
22917;DHT22;11624;53.250;7.456;2022-10-16T08:31:22;20.88;54.84
22917;DHT22;11624;53.250;7.456;2022-10-16T08:33:50;20.94;54.37
22917;DHT22;11624;53.250;7.456;2022-10-16T08:36:20;21.05;54.20
22917;DHT22;11624;53.250;7.456;2022-10-16T08:38:49;21.11;53.48
22917;DHT22;11624;53.250;7.456;2022-10-16T08:41:34;21.08;54.05
22917;DHT22;11624;53.250;7.456;2022-10-16T08:44:25;21.11;53.27
22917;DHT22;11624;53.250;7.456;2022-10-16T08:47:02;21.22;53.50
22917;DHT22;11624;53.250;7.456;2022-10-16T08:49:36;21.27;53.71
22917;DHT22;11624;53.250;7.456;2022-10-16T08:52:10;21.59;53.04
22917;DHT22;11624;53.250;7.456;2022-10-16T08:54:42;21.74;52.49
22917;DHT22;11624;53.250;7.456;2022-10-16T08:57:14;22.04;52.74
22917;DHT22;11624;53.250;7.456;2022-10-16T08:59:49;22.56;50.88
22917;DHT22;11624;53.250;7.456;2022-10-16T09:02:31;22.65;48.89
22917;DHT22;11624;53.250;7.456;2022-10-16T09:05:16;22.69;50.20
22917;DHT22;11624;53.250;7.456;2022-10-16T09:07:54;23.22;49.24
22917;DHT22;11624;53.250;7.456;2022-10-16T09:10:34;23.42;46.76
22917;DHT22;11624;53.250;7.456;2022-10-16T09:13:17;23.29;46.74
22917;DHT22;11624;53.250;7.456;2022-10-16T09:15:51;23.21;46.85
22917;DHT22;11624;53.250;7.456;2022-10-16T09:18:25;23.49;47.54
22917;DHT22;11624;53.250;7.456;2022-10-16T09:21:04;24.11;45.83
22917;DHT22;11624;53.250;7.456;2022-10-16T09:23:36;24.35;43.90
22917;DHT22;11624;53.250;7.456;2022-10-16T09:26:05;24.25;43.94
22917;DHT22;11624;53.250;7.456;2022-10-16T09:28:37;23.95;43.96
22917;DHT22;11624;53.250;7.456;2022-10-16T09:31:07;23.65;44.76
22917;DHT22;11624;53.250;7.456;2022-10-16T09:33:39;23.30;45.41
22917;DHT22;11624;53.250;7.456;2022-10-16T09:36:09;23.00;45.97
22917;DHT22;11624;53.250;7.456;2022-10-16T09:38:39;22.86;46.71
22917;DHT22;11624;53.250;7.456;2022-10-16T09:41:15;23.08;46.96
22917;DHT22;11624;53.250;7.456;2022-10-16T09:43:51;23.27;46.35
22917;DHT22;11624;53.250;7.456;2022-10-16T09:46:25;23.68;45.29
22917;DHT22;11624;53.250;7.456;2022-10-16T09:48:55;23.59;45.72
22917;DHT22;11624;53.250;7.456;2022-10-16T09:51:26;23.98;45.09
22917;DHT22;11624;53.250;7.456;2022-10-16T09:53:58;23.82;43.96
22917;DHT22;11624;53.250;7.456;2022-10-16T09:56:28;24.03;45.09
22917;DHT22;11624;53.250;7.456;2022-10-16T09:58:58;24.51;44.42
22917;DHT22;11624;53.250;7.456;2022-10-16T10:01:31;24.77;42.58
22917;DHT22;11624;53.250;7.456;2022-10-16T10:04:03;24.92;42.32
22917;DHT22;11624;53.250;7.456;2022-10-16T10:06:34;25.29;41.92
22917;DHT22;11624;53.250;7.456;2022-10-16T10:09:16;25.78;41.37
22917;DHT22;11624;53.250;7.456;2022-10-16T10:11:48;26.03;39.91
22917;DHT22;11624;53.250;7.456;2022-10-16T10:14:25;26.06;39.78
22917;DHT22;11624;53.250;7.456;2022-10-16T10:17:11;25.90;39.62
22917;DHT22;11624;53.250;7.456;2022-10-16T10:19:42;26.31;39.74
22917;DHT22;11624;53.250;7.456;2022-10-16T10:22:27;26.73;38.58
22917;DHT22;11624;53.250;7.456;2022-10-16T10:25:18;26.73;37.50
22917;DHT22;11624;53.250;7.456;2022-10-16T10:28:03;26.40;37.78
22917;DHT22;11624;53.250;7.456;2022-10-16T10:30:39;25.82;39.51
22917;DHT22;11624;53.250;7.456;2022-10-16T10:33:23;26.07;39.66
22917;DHT22;11624;53.250;7.456;2022-10-16T10:35:57;25.80;39.21
22917;DHT22;11624;53.250;7.456;2022-10-16T10:38:37;25.57;40.85
22917;DHT22;11624;53.250;7.456;2022-10-16T10:41:22;25.05;40.50
22917;DHT22;11624;53.250;7.456;2022-10-16T10:44:03;24.77;41.90
22917;DHT22;11624;53.250;7.456;2022-10-16T10:46:35;24.89;41.74
22917;DHT22;11624;53.250;7.456;2022-10-16T10:49:23;24.64;42.30
22917;DHT22;11624;53.250;7.456;2022-10-16T10:51:58;24.76;43.51
22917;DHT22;11624;53.250;7.456;2022-10-16T10:54:34;25.29;41.42
22917;DHT22;11624;53.250;7.456;2022-10-16T10:57:10;25.96;39.35
22917;DHT22;11624;53.250;7.456;2022-10-16T11:00:06;26.24;38.62
22917;DHT22;11624;53.250;7.456;2022-10-16T11:02:41;26.89;36.98
22917;DHT22;11624;53.250;7.456;2022-10-16T11:05:26;26.99;35.37
22917;DHT22;11624;53.250;7.456;2022-10-16T11:07:58;26.70;35.59
22917;DHT22;11624;53.250;7.456;2022-10-16T11:10:30;26.17;37.42
22917;DHT22;11624;53.250;7.456;2022-10-16T11:13:08;26.16;36.90
22917;DHT22;11624;53.250;7.456;2022-10-16T11:15:39;26.32;37.29
22917;DHT22;11624;53.250;7.456;2022-10-16T11:18:13;26.24;37.21
22917;DHT22;11624;53.250;7.456;2022-10-16T11:20:46;25.91;37.56
22917;DHT22;11624;53.250;7.456;2022-10-16T11:23:22;25.93;37.31
22917;DHT22;11624;53.250;7.456;2022-10-16T11:25:52;25.72;36.69
22917;DHT22;11624;53.250;7.456;2022-10-16T11:28:27;25.63;36.82
22917;DHT22;11624;53.250;7.456;2022-10-16T11:31:00;25.79;36.48
22917;DHT22;11624;53.250;7.456;2022-10-16T11:33:33;25.92;35.91
22917;DHT22;11624;53.250;7.456;2022-10-16T11:36:09;25.90;36.79
22917;DHT22;11624;53.250;7.456;2022-10-16T11:38:48;25.95;35.84
22917;DHT22;11624;53.250;7.456;2022-10-16T11:41:24;25.76;36.34
22917;DHT22;11624;53.250;7.456;2022-10-16T11:44:14;25.20;36.75
22917;DHT22;11624;53.250;7.456;2022-10-16T11:46:50;24.95;37.86
22917;DHT22;11624;53.250;7.456;2022-10-16T11:49:39;25.04;36.71
22917;DHT22;11624;53.250;7.456;2022-10-16T11:52:13;25.22;37.79
22917;DHT22;11624;53.250;7.456;2022-10-16T11:54:48;25.37;36.16
22917;DHT22;11624;53.250;7.456;2022-10-16T11:57:20;25.57;36.63
22917;DHT22;11624;53.250;7.456;2022-10-16T11:59:53;25.56;36.14
22917;DHT22;11624;53.250;7.456;2022-10-16T12:02:33;25.42;36.24
22917;DHT22;11624;53.250;7.456;2022-10-16T12:05:14;25.17;37.20
22917;DHT22;11624;53.250;7.456;2022-10-16T12:07:49;25.37;38.20
22917;DHT22;11624;53.250;7.456;2022-10-16T12:10:21;25.88;37.17
22917;DHT22;11624;53.250;7.456;2022-10-16T12:12:53;26.39;36.25
22917;DHT22;11624;53.250;7.456;2022-10-16T12:15:26;26.65;35.04
22917;DHT22;11624;53.250;7.456;2022-10-16T12:18:21;26.42;35.69
22917;DHT22;11624;53.250;7.456;2022-10-16T12:20:55;26.63;35.25
22917;DHT22;11624;53.250;7.456;2022-10-16T12:23:26;26.75;34.31
22917;DHT22;11624;53.250;7.456;2022-10-16T12:25:55;26.78;34.34
22917;DHT22;11624;53.250;7.456;2022-10-16T12:28:27;26.73;33.34
22917;DHT22;11624;53.250;7.456;2022-10-16T12:30:59;26.53;34.02
22917;DHT22;11624;53.250;7.456;2022-10-16T12:33:30;26.39;34.57
22917;DHT22;11624;53.250;7.456;2022-10-16T12:36:00;26.32;35.02
22917;DHT22;11624;53.250;7.456;2022-10-16T12:38:35;26.23;35.03
22917;DHT22;11624;53.250;7.456;2022-10-16T12:41:06;26.09;35.25
22917;DHT22;11624;53.250;7.456;2022-10-16T12:43:37;25.93;35.69
22917;DHT22;11624;53.250;7.456;2022-10-16T12:46:23;25.88;35.85
22917;DHT22;11624;53.250;7.456;2022-10-16T12:48:52;25.90;35.89
22917;DHT22;11624;53.250;7.456;2022-10-16T12:51:36;25.86;35.79
22917;DHT22;11624;53.250;7.456;2022-10-16T12:54:12;25.95;35.75
22917;DHT22;11624;53.250;7.456;2022-10-16T12:56:51;26.08;34.74
22917;DHT22;11624;53.250;7.456;2022-10-16T12:59:31;26.30;33.41
22917;DHT22;11624;53.250;7.456;2022-10-16T13:02:20;26.21;34.28
22917;DHT22;11624;53.250;7.456;2022-10-16T13:05:00;26.37;34.21
22917;DHT22;11624;53.250;7.456;2022-10-16T13:07:42;26.17;34.50
22917;DHT22;11624;53.250;7.456;2022-10-16T13:10:20;25.87;35.90
22917;DHT22;11624;53.250;7.456;2022-10-16T13:13:00;25.97;36.15
22917;DHT22;11624;53.250;7.456;2022-10-16T13:15:40;25.68;36.15
22917;DHT22;11624;53.250;7.456;2022-10-16T13:18:15;25.47;36.01
22917;DHT22;11624;53.250;7.456;2022-10-16T13:20:56;25.09;36.79
22917;DHT22;11624;53.250;7.456;2022-10-16T13:23:30;24.84;37.47
22917;DHT22;11624;53.250;7.456;2022-10-16T13:26:09;24.69;37.78
22917;DHT22;11624;53.250;7.456;2022-10-16T13:28:41;24.82;38.12
22917;DHT22;11624;53.250;7.456;2022-10-16T13:31:15;25.21;37.88
22917;DHT22;11624;53.250;7.456;2022-10-16T13:33:48;25.73;36.93
22917;DHT22;11624;53.250;7.456;2022-10-16T13:36:20;25.84;34.46
22917;DHT22;11624;53.250;7.456;2022-10-16T13:38:59;25.56;34.89
22917;DHT22;11624;53.250;7.456;2022-10-16T13:41:28;25.56;36.18
22917;DHT22;11624;53.250;7.456;2022-10-16T13:43:56;26.04;35.04
22917;DHT22;11624;53.250;7.456;2022-10-16T13:46:25;26.38;33.24
22917;DHT22;11624;53.250;7.456;2022-10-16T13:48:58;26.54;33.03
22917;DHT22;11624;53.250;7.456;2022-10-16T13:51:27;26.72;33.04
22917;DHT22;11624;53.250;7.456;2022-10-16T13:53:56;26.96;32.09
22917;DHT22;11624;53.250;7.456;2022-10-16T13:56:27;26.96;32.14
22917;DHT22;11624;53.250;7.456;2022-10-16T13:59:00;26.87;31.93
22917;DHT22;11624;53.250;7.456;2022-10-16T14:01:30;27.01;32.25
22917;DHT22;11624;53.250;7.456;2022-10-16T14:04:05;27.08;31.59
22917;DHT22;11624;53.250;7.456;2022-10-16T14:06:35;27.04;31.32
22917;DHT22;11624;53.250;7.456;2022-10-16T14:09:06;27.12;30.96
22917;DHT22;11624;53.250;7.456;2022-10-16T14:11:37;26.73;30.91
22917;DHT22;11624;53.250;7.456;2022-10-16T14:14:10;26.38;32.01
22917;DHT22;11624;53.250;7.456;2022-10-16T14:16:41;26.22;32.81
22917;DHT22;11624;53.250;7.456;2022-10-16T14:19:18;26.01;32.85
22917;DHT22;11624;53.250;7.456;2022-10-16T14:21:49;25.58;33.60
22917;DHT22;11624;53.250;7.456;2022-10-16T14:24:31;25.08;34.79
22917;DHT22;11624;53.250;7.456;2022-10-16T14:27:00;24.90;35.64
22917;DHT22;11624;53.250;7.456;2022-10-16T14:29:29;24.83;35.74
22917;DHT22;11624;53.250;7.456;2022-10-16T14:32:00;24.84;35.53
22917;DHT22;11624;53.250;7.456;2022-10-16T14:34:33;24.82;35.54
22917;DHT22;11624;53.250;7.456;2022-10-16T14:37:08;24.82;35.67
22917;DHT22;11624;53.250;7.456;2022-10-16T14:39:37;24.69;36.01
22917;DHT22;11624;53.250;7.456;2022-10-16T14:42:14;24.60;36.24
22917;DHT22;11624;53.250;7.456;2022-10-16T14:44:43;24.39;36.33
22917;DHT22;11624;53.250;7.456;2022-10-16T14:47:15;24.21;36.77
22917;DHT22;11624;53.250;7.456;2022-10-16T14:49:50;24.05;37.18
22917;DHT22;11624;53.250;7.456;2022-10-16T14:52:18;23.91;37.53
22917;DHT22;11624;53.250;7.456;2022-10-16T14:54:48;23.83;37.44
22917;DHT22;11624;53.250;7.456;2022-10-16T14:57:17;23.70;37.94
22917;DHT22;11624;53.250;7.456;2022-10-16T14:59:46;23.55;38.13
22917;DHT22;11624;53.250;7.456;2022-10-16T15:02:20;23.39;38.01
22917;DHT22;11624;53.250;7.456;2022-10-16T15:04:51;23.26;38.22
22917;DHT22;11624;53.250;7.456;2022-10-16T15:07:20;23.17;38.31
22917;DHT22;11624;53.250;7.456;2022-10-16T15:09:48;23.03;38.40
22917;DHT22;11624;53.250;7.456;2022-10-16T15:12:16;22.94;38.57
22917;DHT22;11624;53.250;7.456;2022-10-16T15:14:44;22.85;38.96
22917;DHT22;11624;53.250;7.456;2022-10-16T15:17:12;22.79;39.07
22917;DHT22;11624;53.250;7.456;2022-10-16T15:19:45;22.72;39.33
22917;DHT22;11624;53.250;7.456;2022-10-16T15:22:15;22.62;39.48
22917;DHT22;11624;53.250;7.456;2022-10-16T15:24:43;22.51;39.78
22917;DHT22;11624;53.250;7.456;2022-10-16T15:27:11;22.51;39.72
22917;DHT22;11624;53.250;7.456;2022-10-16T15:29:39;22.42;39.97
22917;DHT22;11624;53.250;7.456;2022-10-16T15:32:08;22.38;39.87
22917;DHT22;11624;53.250;7.456;2022-10-16T15:34:36;22.28;40.30
22917;DHT22;11624;53.250;7.456;2022-10-16T15:37:04;22.26;40.48
22917;DHT22;11624;53.250;7.456;2022-10-16T15:39:34;22.21;40.55
22917;DHT22;11624;53.250;7.456;2022-10-16T15:42:07;22.19;40.81
22917;DHT22;11624;53.250;7.456;2022-10-16T15:44:35;22.19;40.86
22917;DHT22;11624;53.250;7.456;2022-10-16T15:47:03;22.18;40.97
22917;DHT22;11624;53.250;7.456;2022-10-16T15:49:31;22.18;40.97
22917;DHT22;11624;53.250;7.456;2022-10-16T15:51:59;22.13;41.21
22917;DHT22;11624;53.250;7.456;2022-10-16T15:54:27;22.06;41.42
22917;DHT22;11624;53.250;7.456;2022-10-16T15:56:56;21.97;41.53
22917;DHT22;11624;53.250;7.456;2022-10-16T15:59:24;21.97;41.68